Terminal Aerodrome Forecast
Issued by NWS Brownsville, TX

Home | Current Version | Previous Version | Text Only | Print | Product List | Glossary On
Versions: 1 2 3 4 5 6 7 8 9 10 11 12 13 14
000
FTUS44 KBRO 011128
TAFHRL
TAF
KHRL 011128Z 0112/0212 18010KT P6SM VCSH FEW040 BKN100
     FM011700 20012KT P6SM FEW040 BKN100
     FM020300 35003KT 6SM BR OVC040
      TEMPO 0203/0206 3/4SM BR OVC006
     FM020700 36018G30KT P6SM VCSH BKN030=

USA.gov is the U.S. government's official web portal to all federal, state and local government web resources and services.